Time;durP1;ratioP1;P1;durP2;ratioP2;P2;SDS_P1;SDS_P2;PMS_P1;PMS_P2;Temp;Humidity;BMP_temperature;BMP_pressure;BME280_temperature;BME280_humidity;BME280_pressure;Samples;Min_cycle;Max_cycle;Signal;HPM_P1;HPM_P2
2023/09/10 00:00:19;;;;;;;;;;;;;;;;;;5089069;28;5074;-60
2023/09/10 00:02:44;;;;;;;;;;;;;;;;;;5082817;28;5042;-61
2023/09/10 00:05:09;;;;;;;;;;;;;;;;;;5097032;28;1113;-60
2023/09/10 00:07:34;;;;;;;;;;;;;;;;;;5101861;28;4974;-61
2023/09/10 00:10:00;;;;;;;;;;;;;;;;;;5085503;28;5233;-61
2023/09/10 00:12:25;;;;;;;;;;;;;;;;;;5100981;28;4631;-61
2023/09/10 00:14:50;;;;;;;;;;;;;;;;;;5078877;28;4639;-61
2023/09/10 00:17:16;;;;;;;;;;;;;;;;;;5100629;28;3275;-61
2023/09/10 00:19:41;;;;;;;;;;;;;;;;;;5093838;28;5004;-61
2023/09/10 00:22:06;;;;;;;;;;;;;;;;;;5099654;28;4700;-61
2023/09/10 00:24:32;;;;;;;;;;;;;;;;;;5099367;28;4712;-61
2023/09/10 00:26:57;;;;;;;;;;;;;;;;;;5075711;28;4495;-61
2023/09/10 00:29:22;;;;;;;;;;;;;;;;;;5098394;28;4867;-61
2023/09/10 00:31:48;;;;;;;;;;;;;;;;;;5099158;28;4917;-61
2023/09/10 00:34:13;;;;;;;;;;;;;;;;;;5094882;28;4944;-61
2023/09/10 00:36:38;;;;;;;;;;;;;;;;;;5097206;28;5023;-61
2023/09/10 00:39:04;;;;;;;;;;;;;;;;;;5102363;28;4439;-61
2023/09/10 00:41:29;;;;;;;;;;;;;;;;;;5092005;28;5028;-62
2023/09/10 00:43:54;;;;;;;;;;;;;;;;;;5093752;28;3267;-62
2023/09/10 00:46:19;;;;;;;;;;;;;;;;;;5080166;28;5061;-62
2023/09/10 00:48:45;;;;;;;;;;;;;;;;;;5089625;28;5072;-62
2023/09/10 00:51:10;;;;;;;;;;;;;;;;;;5089861;28;4496;-62
2023/09/10 00:53:35;;;;;;;;;;;;;;;;;;5088398;28;5066;-62
2023/09/10 00:56:01;;;;;;;;;;;;;;;;;;5083795;28;3256;-62
2023/09/10 00:58:26;;;;;;;;;;;;;;;;;;5085359;28;5051;-62
2023/09/10 01:00:52;;;;;;;;;;;;;;;;;;5087709;28;4513;-62
2023/09/10 01:03:18;;;;;;;;;;;;;;;;;;5066413;28;4937;-62
2023/09/10 01:05:43;;;;;;;;;;;;;;;;;;5085666;28;4692;-61
2023/09/10 01:08:08;;;;;;;;;;;;;;;;;;5083635;28;3252;-62
2023/09/10 01:10:43;;;;;;;;;;;;;;;;;;5084065;28;4568;-61
2023/09/10 01:13:12;;;;;;;;;;;;;;;;;;5103660;27;4635;-62
2023/09/10 01:15:48;;;;;;;;;;;;;;;;;;5090461;28;4979;-62
2023/09/10 01:18:23;;;;;;;;;;;;;;;;;;5099507;27;5215;-62
2023/09/10 01:20:53;;;;;;;;;;;;;;;;;;5084450;28;5516;-62
2023/09/10 01:23:45;;;;;;;;;;;;;;;;;;5079254;28;3301;-62
2023/09/10 01:26:10;;;;;;;;;;;;;;;;;;5054897;28;4896;-62
2023/09/10 01:28:35;;;;;;;;;;;;;;;;;;5085966;28;4865;-62
2023/09/10 01:31:01;;;;;;;;;;;;;;;;;;5085944;28;4482;-63
2023/09/10 01:33:30;;;;;;;;;;;;;;;;;;5080972;28;4877;-62
2023/09/10 01:36:01;;;;;;;;;;;;;;;;;;5083072;28;4450;-62
2023/09/10 01:38:28;;;;;;;;;;;;;;;;;;5099419;28;5001;-62
2023/09/10 01:41:00;;;;;;;;;;;;;;;;;;5082041;28;3627;-62
2023/09/10 01:43:25;;;;;;;;;;;;;;;;;;5088653;28;4918;-62
2023/09/10 01:45:50;;;;;;;;;;;;;;;;;;5078409;28;5155;-62
2023/09/10 01:48:16;;;;;;;;;;;;;;;;;;5074893;28;5784;-63
2023/09/10 01:50:41;;;;;;;;;;;;;;;;;;5104340;27;5081;-62
2023/09/10 01:53:06;;;;;;;;;;;;;;;;;;5085469;28;3388;-62
2023/09/10 01:55:32;;;;;;;;;;;;;;;;;;5082575;28;4853;-62
2023/09/10 01:58:03;;;;;;;;;;;;;;;;;;5039301;27;4720;-63
2023/09/10 02:00:28;;;;;;;;;;;;;;;;;;5011178;28;5094;-62
2023/09/10 02:02:54;;;;;;;;;;;;;;;;;;5011947;28;5058;-62
2023/09/10 02:05:19;;;;;;;;;;;;;;;;;;5015241;28;3313;-63
2023/09/10 02:07:44;;;;;;;;;;;;;;;;;;5021096;28;4426;-63
2023/09/10 02:10:10;;;;;;;;;;;;;;;;;;5017222;28;4982;-62
2023/09/10 02:12:36;;;;;;;;;;;;;;;;;;5013613;28;5115;-62
2023/09/10 02:15:03;;;;;;;;;;;;;;;;;;5011890;28;4665;-62
2023/09/10 02:17:29;;;;;;;;;;;;;;;;;;5016822;28;4526;-62
2023/09/10 02:19:54;;;;;;;;;;;;;;;;;;5013120;28;3693;-62
2023/09/10 02:22:19;;;;;;;;;;;;;;;;;;5010777;28;5059;-62
2023/09/10 02:24:50;;;;;;;;;;;;;;;;;;5009090;28;4835;-62
2023/09/10 02:27:15;;;;;;;;;;;;;;;;;;5011592;28;5130;-62
2023/09/10 02:29:40;;;;;;;;;;;;;;;;;;5015275;28;5187;-63
2023/09/10 02:32:05;;;;;;;;;;;;;;;;;;5021190;28;3312;-62
2023/09/10 02:34:31;;;;;;;;;;;;;;;;;;5017840;28;4945;-62
2023/09/10 02:36:56;;;;;;;;;;;;;;;;;;5017295;28;4491;-62
2023/09/10 02:39:21;;;;;;;;;;;;;;;;;;5017868;28;4840;-62
2023/09/10 02:41:49;;;;;;;;;;;;;;;;;;5018892;28;4722;-62
2023/09/10 02:44:15;;;;;;;;;;;;;;;;;;5015028;28;3458;-62
2023/09/10 02:46:40;;;;;;;;;;;;;;;;;;5019410;28;4937;-63
2023/09/10 02:49:05;;;;;;;;;;;;;;;;;;5015855;28;4975;-62
2023/09/10 02:51:30;;;;;;;;;;;;;;;;;;5012287;28;4508;-62
2023/09/10 02:53:56;;;;;;;;;;;;;;;;;;5016475;28;5058;-62
2023/09/10 02:56:21;;;;;;;;;;;;;;;;;;5015364;28;3502;-62
2023/09/10 02:58:46;;;;;;;;;;;;;;;;;;5015802;28;5045;-62
2023/09/10 03:01:11;;;;;;;;;;;;;;;;;;5012500;28;5057;-63
2023/09/10 03:03:37;;;;;;;;;;;;;;;;;;5013712;28;5120;-62
2023/09/10 03:06:02;;;;;;;;;;;;;;;;;;5013340;28;4731;-62
2023/09/10 03:08:27;;;;;;;;;;;;;;;;;;4999460;28;4835;-61
2023/09/10 03:10:53;;;;;;;;;;;;;;;;;;5016098;28;3443;-62
2023/09/10 03:13:18;;;;;;;;;;;;;;;;;;5002461;28;5074;-62
2023/09/10 03:15:47;;;;;;;;;;;;;;;;;;5001400;28;5071;-62
2023/09/10 03:18:12;;;;;;;;;;;;;;;;;;4998864;28;4725;-62
2023/09/10 03:20:38;;;;;;;;;;;;;;;;;;5002914;28;4911;-62
2023/09/10 03:23:04;;;;;;;;;;;;;;;;;;5001120;28;3509;-62
2023/09/10 03:25:29;;;;;;;;;;;;;;;;;;5007274;28;4524;-63
2023/09/10 03:27:55;;;;;;;;;;;;;;;;;;5006216;28;5058;-62
2023/09/10 03:30:20;;;;;;;;;;;;;;;;;;5005089;28;5165;-62
2023/09/10 03:32:48;;;;;;;;;;;;;;;;;;5002914;28;5194;-62
2023/09/10 03:35:13;;;;;;;;;;;;;;;;;;5005965;28;3362;-63
2023/09/10 03:37:39;;;;;;;;;;;;;;;;;;5004279;28;5116;-63
2023/09/10 03:40:05;;;;;;;;;;;;;;;;;;5005619;28;5014;-62
2023/09/10 03:42:31;;;;;;;;;;;;;;;;;;5006237;28;5042;-63
2023/09/10 03:44:56;;;;;;;;;;;;;;;;;;5004471;28;4508;-62
2023/09/10 03:47:21;;;;;;;;;;;;;;;;;;5005617;28;1200;-63
2023/09/10 03:49:46;;;;;;;;;;;;;;;;;;5005149;28;4802;-63
2023/09/10 03:52:19;;;;;;;;;;;;;;;;;;5002873;28;4681;-63
2023/09/10 03:54:44;;;;;;;;;;;;;;;;;;5007422;28;4604;-63
2023/09/10 03:57:09;;;;;;;;;;;;;;;;;;5000595;28;5043;-63
2023/09/10 03:59:34;;;;;;;;;;;;;;;;;;5006842;28;5215;-62
2023/09/10 04:02:00;;;;;;;;;;;;;;;;;;4998809;28;3466;-62
2023/09/10 04:04:25;;;;;;;;;;;;;;;;;;5006726;28;4990;-62
2023/09/10 04:06:50;;;;;;;;;;;;;;;;;;5003621;28;4497;-62
2023/09/10 04:09:16;;;;;;;;;;;;;;;;;;5005477;28;4474;-62
2023/09/10 04:11:41;;;;;;;;;;;;;;;;;;5005895;28;4490;-63
2023/09/10 04:14:07;;;;;;;;;;;;;;;;;;5008112;28;1122;-63
2023/09/10 04:16:32;;;;;;;;;;;;;;;;;;5002172;28;4646;-62
2023/09/10 04:18:57;;;;;;;;;;;;;;;;;;5013912;28;4486;-62
2023/09/10 04:21:23;;;;;;;;;;;;;;;;;;5001686;28;4552;-61
2023/09/10 04:23:48;;;;;;;;;;;;;;;;;;5004613;28;4444;-62
2023/09/10 04:26:13;;;;;;;;;;;;;;;;;;5005102;28;3225;-62
2023/09/10 04:28:39;;;;;;;;;;;;;;;;;;5004511;28;5101;-62
2023/09/10 04:31:04;;;;;;;;;;;;;;;;;;4998335;28;4936;-63
2023/09/10 04:33:29;;;;;;;;;;;;;;;;;;5004276;28;5242;-62
2023/09/10 04:35:57;;;;;;;;;;;;;;;;;;5006189;28;5034;-63
2023/09/10 04:38:22;;;;;;;;;;;;;;;;;;5007309;28;1814;-62
2023/09/10 04:40:47;;;;;;;;;;;;;;;;;;5005630;28;5370;-62
2023/09/10 04:43:13;;;;;;;;;;;;;;;;;;5002687;28;4666;-62
2023/09/10 04:45:38;;;;;;;;;;;;;;;;;;5004514;28;5048;-63
2023/09/10 04:48:04;;;;;;;;;;;;;;;;;;4999920;28;4964;-62
2023/09/10 04:50:29;;;;;;;;;;;;;;;;;;5006649;28;5102;-63
2023/09/10 04:52:55;;;;;;;;;;;;;;;;;;5005868;28;3360;-62
2023/09/10 04:55:20;;;;;;;;;;;;;;;;;;5005648;28;4525;-62
2023/09/10 04:57:46;;;;;;;;;;;;;;;;;;5002727;28;5067;-62
2023/09/10 05:00:12;;;;;;;;;;;;;;;;;;5000112;28;5079;-62
2023/09/10 05:02:37;;;;;;;;;;;;;;;;;;4999710;28;4500;-62
2023/09/10 05:05:03;;;;;;;;;;;;;;;;;;5005565;28;3283;-61
2023/09/10 05:07:28;;;;;;;;;;;;;;;;;;5000518;28;4475;-62
2023/09/10 05:09:54;;;;;;;;;;;;;;;;;;5000323;28;4977;-62
2023/09/10 05:12:19;;;;;;;;;;;;;;;;;;4998716;28;5032;-62
2023/09/10 05:14:44;;;;;;;;;;;;;;;;;;4997711;28;4504;-63
2023/09/10 05:17:10;;;;;;;;;;;;;;;;;;5007380;28;3324;-63
2023/09/10 05:19:35;;;;;;;;;;;;;;;;;;5004563;28;4522;-62
2023/09/10 05:22:00;;;;;;;;;;;;;;;;;;5001761;28;5123;-62
2023/09/10 05:24:26;;;;;;;;;;;;;;;;;;5005661;28;5047;-63
2023/09/10 05:26:51;;;;;;;;;;;;;;;;;;5003093;28;5034;-63
2023/09/10 05:29:16;;;;;;;;;;;;;;;;;;5001391;28;4939;-63
2023/09/10 05:31:41;;;;;;;;;;;;;;;;;;4999018;28;4957;-63
2023/09/10 05:34:06;;;;;;;;;;;;;;;;;;5003228;28;5017;-62
2023/09/10 05:36:34;;;;;;;;;;;;;;;;;;4998993;28;5070;-63
2023/09/10 05:38:59;;;;;;;;;;;;;;;;;;5002109;28;5108;-62
2023/09/10 05:41:24;;;;;;;;;;;;;;;;;;4998174;28;5114;-62
2023/09/10 05:43:50;;;;;;;;;;;;;;;;;;5000183;28;3430;-62
2023/09/10 05:46:15;;;;;;;;;;;;;;;;;;5003195;28;4526;-62
2023/09/10 05:48:41;;;;;;;;;;;;;;;;;;4998028;28;5378;-62
2023/09/10 05:51:06;;;;;;;;;;;;;;;;;;5001058;28;4736;-62
2023/09/10 05:53:32;;;;;;;;;;;;;;;;;;5001114;28;4601;-64
2023/09/10 05:55:57;;;;;;;;;;;;;;;;;;5003407;28;3327;-64
2023/09/10 05:58:24;;;;;;;;;;;;;;;;;;4999383;28;4559;-64
2023/09/10 06:00:52;;;;;;;;;;;;;;;;;;4995317;28;4752;-63
2023/09/10 06:03:17;;;;;;;;;;;;;;;;;;4992188;28;5101;-63
2023/09/10 06:05:43;;;;;;;;;;;;;;;;;;4984571;28;4812;-63
2023/09/10 06:08:08;;;;;;;;;;;;;;;;;;5000992;28;3269;-62
2023/09/10 06:10:33;;;;;;;;;;;;;;;;;;4997664;28;4594;-63
2023/09/10 06:12:59;;;;;;;;;;;;;;;;;;5004539;28;4866;-62
2023/09/10 06:15:24;;;;;;;;;;;;;;;;;;4979972;28;4694;-63
2023/09/10 06:17:49;;;;;;;;;;;;;;;;;;4999775;28;4690;-65
2023/09/10 06:20:14;;;;;;;;;;;;;;;;;;4996555;28;3512;-60
2023/09/10 06:22:40;;;;;;;;;;;;;;;;;;4974742;28;5083;-62
2023/09/10 06:25:05;;;;;;;;;;;;;;;;;;4981438;28;5073;-63
2023/09/10 06:27:30;;;;;;;;;;;;;;;;;;4985466;28;4554;-62
2023/09/10 06:29:56;;;;;;;;;;;;;;;;;;4995548;28;5109;-62
2023/09/10 06:32:21;;;;;;;;;;;;;;;;;;5001589;28;3312;-62
2023/09/10 06:34:46;;;;;;;;;;;;;;;;;;4992416;28;4685;-59
2023/09/10 06:37:11;;;;;;;;;;;;;;;;;;5000267;28;5142;-64
2023/09/10 06:39:39;;;;;;;;;;;;;;;;;;5001251;28;4938;-62
2023/09/10 06:42:06;;;;;;;;;;;;;;;;;;4995742;28;5135;-62
2023/09/10 06:44:31;;;;;;;;;;;;;;;;;;5001348;28;5089;-62
2023/09/10 06:46:57;;;;;;;;;;;;;;;;;;4997258;28;3299;-62
2023/09/10 06:49:22;;;;;;;;;;;;;;;;;;5002106;28;5008;-62
2023/09/10 06:51:47;;;;;;;;;;;;;;;;;;5000727;28;4527;-62
2023/09/10 06:54:13;;;;;;;;;;;;;;;;;;5000750;28;4758;-63
2023/09/10 06:56:38;;;;;;;;;;;;;;;;;;5003311;28;4574;-62
2023/09/10 06:59:03;;;;;;;;;;;;;;;;;;5008219;28;3089;-62
2023/09/10 07:01:29;;;;;;;;;;;;;;;;;;5003308;28;5138;-62
2023/09/10 07:03:57;;;;;;;;;;;;;;;;;;5002904;28;4673;-63
2023/09/10 07:06:22;;;;;;;;;;;;;;;;;;4998560;28;5034;-63
2023/09/10 07:08:48;;;;;;;;;;;;;;;;;;5020662;28;5040;-63
2023/09/10 07:11:13;;;;;;;;;;;;;;;;;;5023757;28;3370;-63
2023/09/10 07:13:38;;;;;;;;;;;;;;;;;;5005960;28;4655;-63
2023/09/10 07:16:04;;;;;;;;;;;;;;;;;;4998573;28;5047;-64
2023/09/10 07:18:32;;;;;;;;;;;;;;;;;;4999188;28;4596;-63
2023/09/10 07:20:58;;;;;;;;;;;;;;;;;;5003209;28;5090;-62
2023/09/10 07:23:23;;;;;;;;;;;;;;;;;;4979797;28;5085;-62
2023/09/10 07:25:49;;;;;;;;;;;;;;;;;;5013619;28;3223;-62
2023/09/10 07:28:14;;;;;;;;;;;;;;;;;;5005974;28;5087;-57
2023/09/10 07:30:39;;;;;;;;;;;;;;;;;;4999150;28;4553;-58
2023/09/10 07:33:04;;;;;;;;;;;;;;;;;;5002859;28;5035;-58
2023/09/10 07:35:30;;;;;;;;;;;;;;;;;;5002897;28;5058;-59
2023/09/10 07:37:55;;;;;;;;;;;;;;;;;;5009686;28;1977;-58
2023/09/10 07:40:20;;;;;;;;;;;;;;;;;;4999323;28;4661;-59
2023/09/10 07:42:46;;;;;;;;;;;;;;;;;;4977329;28;4559;-73
2023/09/10 07:45:14;;;;;;;;;;;;;;;;;;4989815;28;4532;-64
2023/09/10 07:47:40;;;;;;;;;;;;;;;;;;4995844;28;5079;-69
2023/09/10 07:50:05;;;;;;;;;;;;;;;;;;5004031;28;3715;-68
2023/09/10 07:52:31;;;;;;;;;;;;;;;;;;4999245;28;4909;-65
2023/09/10 07:54:56;;;;;;;;;;;;;;;;;;5003614;28;4976;-64
2023/09/10 07:57:22;;;;;;;;;;;;;;;;;;5002419;28;4784;-65
2023/09/10 07:59:47;;;;;;;;;;;;;;;;;;5000722;28;4709;-66
2023/09/10 08:02:12;;;;;;;;;;;;;;;;;;5003655;28;3553;-63
2023/09/10 08:04:38;;;;;;;;;;;;;;;;;;5003873;28;4880;-67
2023/09/10 08:07:04;;;;;;;;;;;;;;;;;;4998838;28;4648;-67
2023/09/10 08:09:31;;;;;;;;;;;;;;;;;;4981262;28;6210;-63
2023/09/10 08:11:56;;;;;;;;;;;;;;;;;;5004169;28;5533;-72
2023/09/10 08:14:22;;;;;;;;;;;;;;;;;;5005931;28;5649;-65
2023/09/10 08:16:47;;;;;;;;;;;;;;;;;;5004656;28;4927;-67
2023/09/10 08:19:12;;;;;;;;;;;;;;;;;;5006496;28;5074;-68
2023/09/10 08:21:38;;;;;;;;;;;;;;;;;;5003059;28;4912;-73
2023/09/10 08:24:04;;;;;;;;;;;;;;;;;;4997354;28;4654;-73
2023/09/10 08:26:29;;;;;;;;;;;;;;;;;;4980727;28;6212;-63
2023/09/10 08:28:54;;;;;;;;;;;;;;;;;;4999913;28;5203;-65
2023/09/10 08:31:20;;;;;;;;;;;;;;;;;;4977441;28;5165;-69
2023/09/10 08:33:45;;;;;;;;;;;;;;;;;;4996262;28;4518;-67
2023/09/10 08:36:11;;;;;;;;;;;;;;;;;;5005992;28;5159;-67
2023/09/10 08:38:36;;;;;;;;;;;;;;;;;;5001570;28;4914;-66
2023/09/10 08:41:22;;;;;;;;;;;;;;;;;;5000787;28;5125;-67
2023/09/10 08:43:50;;;;;;;;;;;;;;;;;;4997756;28;5322;-67
2023/09/10 08:46:15;;;;;;;;;;;;;;;;;;5003528;28;3756;-66
2023/09/10 08:48:41;;;;;;;;;;;;;;;;;;5001872;28;5084;-63
2023/09/10 08:51:07;;;;;;;;;;;;;;;;;;5005426;28;4491;-72
2023/09/10 08:53:33;;;;;;;;;;;;;;;;;;5021792;28;5938;-62
2023/09/10 08:55:58;;;;;;;;;;;;;;;;;;4986163;28;4594;-63
2023/09/10 08:58:24;;;;;;;;;;;;;;;;;;5005092;28;3500;-63
2023/09/10 09:00:51;;;;;;;;;;;;;;;;;;4998191;28;5502;-63
2023/09/10 09:03:16;;;;;;;;;;;;;;;;;;5002021;28;4573;-62
2023/09/10 09:05:42;;;;;;;;;;;;;;;;;;5001753;28;4524;-61
2023/09/10 09:08:10;;;;;;;;;;;;;;;;;;4985368;28;5177;-66
2023/09/10 09:10:35;;;;;;;;;;;;;;;;;;4998122;28;3599;-63
2023/09/10 09:13:02;;;;;;;;;;;;;;;;;;4998455;28;5021;-66
2023/09/10 09:15:27;;;;;;;;;;;;;;;;;;5003557;28;5041;-68
2023/09/10 09:17:54;;;;;;;;;;;;;;;;;;5000020;28;4682;-66
2023/09/10 09:20:20;;;;;;;;;;;;;;;;;;5002041;28;4664;-68
2023/09/10 09:22:46;;;;;;;;;;;;;;;;;;5019010;28;3516;-65
2023/09/10 09:25:12;;;;;;;;;;;;;;;;;;5007158;28;4651;-64
2023/09/10 09:27:37;;;;;;;;;;;;;;;;;;5003943;28;5115;-63
2023/09/10 09:30:06;;;;;;;;;;;;;;;;;;5001417;28;5119;-65
2023/09/10 09:32:34;;;;;;;;;;;;;;;;;;5003192;28;4552;-70
2023/09/10 09:35:00;;;;;;;;;;;;;;;;;;5016482;28;5190;-67
2023/09/10 09:37:25;;;;;;;;;;;;;;;;;;5003320;28;3558;-66
2023/09/10 09:39:51;;;;;;;;;;;;;;;;;;5001212;28;4863;-64
2023/09/10 09:42:16;;;;;;;;;;;;;;;;;;5000382;28;5209;-66
2023/09/10 09:44:43;;;;;;;;;;;;;;;;;;5000186;28;5024;-66
2023/09/10 09:47:12;;;;;;;;;;;;;;;;;;4999428;28;5089;-64
2023/09/10 09:49:46;;;;;;;;;;;;;;;;;;5001865;28;3696;-63
2023/09/10 09:52:12;;;;;;;;;;;;;;;;;;5002084;28;4591;-68
2023/09/10 09:54:38;;;;;;;;;;;;;;;;;;5015167;28;4742;-72
2023/09/10 09:57:03;;;;;;;;;;;;;;;;;;5007168;28;5109;-62
2023/09/10 09:59:29;;;;;;;;;;;;;;;;;;4998239;28;5164;-67
2023/09/10 10:01:56;;;;;;;;;;;;;;;;;;5006131;28;4525;-62
2023/09/10 10:04:22;;;;;;;;;;;;;;;;;;5002622;28;3667;-65
2023/09/10 10:06:48;;;;;;;;;;;;;;;;;;5000810;28;4568;-66
2023/09/10 10:09:13;;;;;;;;;;;;;;;;;;4986358;28;4942;-68
2023/09/10 10:11:38;;;;;;;;;;;;;;;;;;5001066;28;5095;-68
2023/09/10 10:14:04;;;;;;;;;;;;;;;;;;4995450;28;5063;-65
2023/09/10 10:16:30;;;;;;;;;;;;;;;;;;5016612;28;3437;-66
2023/09/10 10:18:55;;;;;;;;;;;;;;;;;;4999357;28;5076;-62
2023/09/10 10:21:21;;;;;;;;;;;;;;;;;;5004358;28;4603;-67
2023/09/10 10:23:47;;;;;;;;;;;;;;;;;;5007853;28;4883;-68
2023/09/10 10:26:12;;;;;;;;;;;;;;;;;;5010897;28;4658;-71
2023/09/10 10:28:37;;;;;;;;;;;;;;;;;;5021067;28;3427;-66
2023/09/10 10:31:14;;;;;;;;;;;;;;;;;;5002532;28;4942;-65
2023/09/10 10:33:41;;;;;;;;;;;;;;;;;;5005443;28;4549;-66
2023/09/10 10:36:25;;;;;;;;;;;;;;;;;;4997286;28;4794;-66
2023/09/10 10:38:50;;;;;;;;;;;;;;;;;;5005368;28;4505;-66
2023/09/10 10:41:20;;;;;;;;;;;;;;;;;;5003583;28;4940;-63
2023/09/10 10:43:54;;;;;;;;;;;;;;;;;;4992741;28;3459;-65
2023/09/10 10:46:20;;;;;;;;;;;;;;;;;;5003160;28;4996;-64
2023/09/10 10:48:45;;;;;;;;;;;;;;;;;;4985815;28;4909;-65
2023/09/10 10:51:10;;;;;;;;;;;;;;;;;;5001566;28;5709;-65
2023/09/10 10:53:36;;;;;;;;;;;;;;;;;;5015421;28;4655;-66
2023/09/10 10:56:03;;;;;;;;;;;;;;;;;;5004077;28;5118;-66
2023/09/10 10:58:29;;;;;;;;;;;;;;;;;;5004234;28;3508;-68
2023/09/10 11:00:57;;;;;;;;;;;;;;;;;;5003045;28;4683;-64
2023/09/10 11:03:22;;;;;;;;;;;;;;;;;;5002534;28;5058;-65
2023/09/10 11:05:54;;;;;;;;;;;;;;;;;;4984643;28;5168;-62
2023/09/10 11:08:29;;;;;;;;;;;;;;;;;;5000252;28;5051;-61
2023/09/10 11:10:54;;;;;;;;;;;;;;;;;;5003041;28;5120;-61
2023/09/10 11:13:19;;;;;;;;;;;;;;;;;;5008927;28;1168;-60
2023/09/10 11:16:03;;;;;;;;;;;;;;;;;;5007807;28;4487;-62
2023/09/10 11:18:34;;;;;;;;;;;;;;;;;;5005606;28;5013;-61
2023/09/10 11:21:20;;;;;;;;;;;;;;;;;;5008552;28;5786;-62
2023/09/10 11:23:51;;;;;;;;;;;;;;;;;;4995129;28;5112;-63
2023/09/10 11:26:17;;;;;;;;;;;;;;;;;;5000691;28;4958;-63
2023/09/10 11:28:42;;;;;;;;;;;;;;;;;;4997775;28;1683;-62
2023/09/10 11:31:26;;;;;;;;;;;;;;;;;;5002295;28;4493;-62
2023/09/10 11:33:52;;;;;;;;;;;;;;;;;;5007440;28;5206;-62
2023/09/10 11:36:17;;;;;;;;;;;;;;;;;;5008640;28;5804;-61
2023/09/10 11:38:43;;;;;;;;;;;;;;;;;;4991060;28;4892;-61
2023/09/10 11:41:08;;;;;;;;;;;;;;;;;;5007687;28;4479;-62
2023/09/10 11:43:33;;;;;;;;;;;;;;;;;;5007738;28;1189;-61
2023/09/10 11:45:59;;;;;;;;;;;;;;;;;;5007809;28;4414;-61
2023/09/10 11:48:25;;;;;;;;;;;;;;;;;;5008781;28;5020;-61
2023/09/10 11:50:51;;;;;;;;;;;;;;;;;;5008245;28;5527;-61
2023/09/10 11:53:17;;;;;;;;;;;;;;;;;;5000276;28;5051;-62
2023/09/10 11:55:43;;;;;;;;;;;;;;;;;;5023359;28;1259;-62
2023/09/10 11:58:08;;;;;;;;;;;;;;;;;;5006579;28;4966;-61
2023/09/10 12:00:33;;;;;;;;;;;;;;;;;;5003725;28;4917;-61
2023/09/10 12:02:59;;;;;;;;;;;;;;;;;;5005555;28;5181;-61
2023/09/10 12:05:24;;;;;;;;;;;;;;;;;;5001567;28;4773;-62
2023/09/10 12:07:50;;;;;;;;;;;;;;;;;;5004481;28;5010;-61
2023/09/10 12:10:15;;;;;;;;;;;;;;;;;;4990994;28;1135;-61
2023/09/10 12:12:40;;;;;;;;;;;;;;;;;;5017194;28;4867;-62
2023/09/10 12:15:06;;;;;;;;;;;;;;;;;;5011658;28;4995;-62
2023/09/10 12:17:31;;;;;;;;;;;;;;;;;;5006589;28;5144;-61
2023/09/10 12:19:57;;;;;;;;;;;;;;;;;;5007712;28;4540;-64
2023/09/10 12:22:22;;;;;;;;;;;;;;;;;;5022983;28;1235;-63
2023/09/10 12:24:48;;;;;;;;;;;;;;;;;;5006651;28;4505;-61
2023/09/10 12:27:14;;;;;;;;;;;;;;;;;;5004522;28;5259;-62
2023/09/10 12:29:39;;;;;;;;;;;;;;;;;;4989891;28;4479;-63
2023/09/10 12:32:05;;;;;;;;;;;;;;;;;;4987016;28;5039;-63
2023/09/10 12:34:30;;;;;;;;;;;;;;;;;;5023442;28;4986;-62
2023/09/10 12:36:56;;;;;;;;;;;;;;;;;;4990047;28;5508;-62
2023/09/10 12:39:22;;;;;;;;;;;;;;;;;;5006020;28;5028;-62
2023/09/10 12:41:52;;;;;;;;;;;;;;;;;;4988694;28;4614;-61
2023/09/10 12:44:17;;;;;;;;;;;;;;;;;;5021806;28;5025;-63
2023/09/10 12:46:43;;;;;;;;;;;;;;;;;;5024165;28;1267;-62
2023/09/10 12:49:08;;;;;;;;;;;;;;;;;;4990090;28;4591;-62
2023/09/10 12:51:34;;;;;;;;;;;;;;;;;;5006990;28;6065;-61
2023/09/10 12:53:59;;;;;;;;;;;;;;;;;;5006410;28;5155;-63
2023/09/10 12:56:25;;;;;;;;;;;;;;;;;;5020640;28;5838;-61
2023/09/10 12:58:50;;;;;;;;;;;;;;;;;;5007378;28;5045;-61
2023/09/10 13:01:18;;;;;;;;;;;;;;;;;;5006568;28;1647;-62
2023/09/10 13:03:44;;;;;;;;;;;;;;;;;;5001580;28;4856;-63
2023/09/10 13:06:09;;;;;;;;;;;;;;;;;;5006989;28;4483;-61
2023/09/10 13:08:34;;;;;;;;;;;;;;;;;;5006752;28;4643;-61
2023/09/10 13:11:00;;;;;;;;;;;;;;;;;;5021349;28;4991;-61
2023/09/10 13:13:26;;;;;;;;;;;;;;;;;;4989102;28;2815;-60
2023/09/10 13:15:51;;;;;;;;;;;;;;;;;;5006266;28;4900;-62
2023/09/10 13:18:16;;;;;;;;;;;;;;;;;;5006637;28;5125;-61
2023/09/10 13:20:41;;;;;;;;;;;;;;;;;;4988625;28;5129;-60
2023/09/10 13:23:07;;;;;;;;;;;;;;;;;;5004047;28;5121;-60
2023/09/10 13:25:32;;;;;;;;;;;;;;;;;;5006755;28;1326;-61
2023/09/10 13:27:57;;;;;;;;;;;;;;;;;;5002547;28;5121;-60
2023/09/10 13:30:24;;;;;;;;;;;;;;;;;;5005527;28;5622;-61
2023/09/10 13:32:49;;;;;;;;;;;;;;;;;;5006708;28;5067;-63
2023/09/10 13:35:15;;;;;;;;;;;;;;;;;;5020706;28;5111;-61
2023/09/10 13:37:41;;;;;;;;;;;;;;;;;;4989478;28;1938;-66
2023/09/10 13:40:07;;;;;;;;;;;;;;;;;;5006723;28;4523;-62
2023/09/10 13:42:32;;;;;;;;;;;;;;;;;;5005509;28;4898;-61
2023/09/10 13:44:57;;;;;;;;;;;;;;;;;;5005716;28;5050;-62
2023/09/10 13:47:23;;;;;;;;;;;;;;;;;;5006540;28;4616;-61
2023/09/10 13:49:48;;;;;;;;;;;;;;;;;;5006376;28;4469;-61
2023/09/10 13:52:13;;;;;;;;;;;;;;;;;;5004801;28;1127;-60
2023/09/10 13:54:38;;;;;;;;;;;;;;;;;;4999189;28;4717;-61
2023/09/10 13:57:04;;;;;;;;;;;;;;;;;;5005987;28;4612;-63
2023/09/10 13:59:30;;;;;;;;;;;;;;;;;;5006146;28;5284;-61
2023/09/10 14:01:55;;;;;;;;;;;;;;;;;;5000444;28;5106;-62
2023/09/10 14:04:20;;;;;;;;;;;;;;;;;;5001172;28;1365;-63
2023/09/10 14:06:45;;;;;;;;;;;;;;;;;;5000975;28;4617;-63
2023/09/10 14:09:11;;;;;;;;;;;;;;;;;;5002760;28;4821;-62
2023/09/10 14:11:36;;;;;;;;;;;;;;;;;;4997159;28;4869;-61
2023/09/10 14:14:02;;;;;;;;;;;;;;;;;;5000247;28;5207;-61
2023/09/10 14:16:27;;;;;;;;;;;;;;;;;;5006180;28;2571;-63
2023/09/10 14:18:52;;;;;;;;;;;;;;;;;;5005680;28;5188;-62
2023/09/10 14:21:19;;;;;;;;;;;;;;;;;;5001353;28;5079;-62
2023/09/10 14:23:45;;;;;;;;;;;;;;;;;;5004155;28;5195;-63
2023/09/10 14:26:10;;;;;;;;;;;;;;;;;;5013466;28;5298;-63
2023/09/10 14:28:36;;;;;;;;;;;;;;;;;;4997453;28;1162;-61
2023/09/10 14:31:01;;;;;;;;;;;;;;;;;;5003017;28;5007;-62
2023/09/10 14:33:28;;;;;;;;;;;;;;;;;;5003002;28;4850;-64
2023/09/10 14:35:54;;;;;;;;;;;;;;;;;;5004214;28;4994;-62
2023/09/10 14:38:19;;;;;;;;;;;;;;;;;;5002172;28;5013;-62
2023/09/10 14:40:44;;;;;;;;;;;;;;;;;;5006897;28;1079;-61
2023/09/10 14:43:10;;;;;;;;;;;;;;;;;;5005070;28;5041;-64
2023/09/10 14:45:36;;;;;;;;;;;;;;;;;;5005459;28;5189;-62
2023/09/10 14:48:01;;;;;;;;;;;;;;;;;;5006005;28;5041;-59
2023/09/10 14:50:26;;;;;;;;;;;;;;;;;;5001784;28;4468;-64
2023/09/10 14:52:51;;;;;;;;;;;;;;;;;;5003420;28;4737;-62
2023/09/10 14:55:17;;;;;;;;;;;;;;;;;;5006161;28;1276;-63
2023/09/10 14:57:42;;;;;;;;;;;;;;;;;;5005443;28;5188;-61
2023/09/10 15:00:08;;;;;;;;;;;;;;;;;;5004655;28;4941;-60
2023/09/10 15:02:33;;;;;;;;;;;;;;;;;;5000852;28;4998;-61
2023/09/10 15:04:58;;;;;;;;;;;;;;;;;;4993654;28;5024;-61
2023/09/10 15:07:23;;;;;;;;;;;;;;;;;;5001558;28;1138;-62
2023/09/10 15:09:49;;;;;;;;;;;;;;;;;;5003289;28;5394;-61
2023/09/10 15:12:14;;;;;;;;;;;;;;;;;;4991382;28;5125;-62
2023/09/10 15:14:39;;;;;;;;;;;;;;;;;;5000053;28;5023;-61
2023/09/10 15:17:05;;;;;;;;;;;;;;;;;;5007832;28;5043;-60
2023/09/10 15:19:30;;;;;;;;;;;;;;;;;;5003882;28;1090;-60
2023/09/10 15:21:55;;;;;;;;;;;;;;;;;;5000986;28;4995;-60
2023/09/10 15:24:21;;;;;;;;;;;;;;;;;;5003956;28;5052;-61
2023/09/10 15:26:46;;;;;;;;;;;;;;;;;;5007646;28;5185;-61
2023/09/10 15:29:11;;;;;;;;;;;;;;;;;;5002549;28;5106;-62
2023/09/10 15:31:37;;;;;;;;;;;;;;;;;;4998146;28;1588;-61
2023/09/10 15:34:06;;;;;;;;;;;;;;;;;;5001876;28;5134;-60
2023/09/10 15:36:32;;;;;;;;;;;;;;;;;;5005361;28;5054;-61
2023/09/10 15:38:57;;;;;;;;;;;;;;;;;;5008795;28;4475;-60
2023/09/10 15:41:22;;;;;;;;;;;;;;;;;;5007730;28;4460;-61
2023/09/10 15:43:48;;;;;;;;;;;;;;;;;;5006500;28;4668;-62
2023/09/10 15:46:15;;;;;;;;;;;;;;;;;;5001116;28;3126;-60
2023/09/10 15:48:40;;;;;;;;;;;;;;;;;;5004101;28;4599;-61
2023/09/10 15:51:05;;;;;;;;;;;;;;;;;;5002138;28;4692;-61
2023/09/10 15:53:30;;;;;;;;;;;;;;;;;;5008490;28;4989;-61
2023/09/10 15:55:56;;;;;;;;;;;;;;;;;;5002876;28;4846;-61
2023/09/10 15:58:21;;;;;;;;;;;;;;;;;;5005581;28;3243;-61
2023/09/10 16:00:46;;;;;;;;;;;;;;;;;;5005178;28;5088;-61
2023/09/10 16:03:12;;;;;;;;;;;;;;;;;;5004455;28;4626;-62
2023/09/10 16:05:37;;;;;;;;;;;;;;;;;;4997353;28;4467;-60
2023/09/10 16:08:03;;;;;;;;;;;;;;;;;;4998237;28;4747;-60
2023/09/10 16:10:28;;;;;;;;;;;;;;;;;;5003981;28;1126;-60
2023/09/10 16:12:53;;;;;;;;;;;;;;;;;;4994835;28;4889;-60
2023/09/10 16:15:18;;;;;;;;;;;;;;;;;;5003615;28;4991;-60
2023/09/10 16:17:44;;;;;;;;;;;;;;;;;;5004057;28;4858;-60
2023/09/10 16:20:09;;;;;;;;;;;;;;;;;;4997707;28;5114;-61
2023/09/10 16:22:34;;;;;;;;;;;;;;;;;;5000690;28;1114;-60
2023/09/10 16:25:00;;;;;;;;;;;;;;;;;;4997840;28;5054;-60
2023/09/10 16:27:25;;;;;;;;;;;;;;;;;;5003042;28;5025;-60
2023/09/10 16:29:51;;;;;;;;;;;;;;;;;;5000564;28;5081;-60
2023/09/10 16:32:17;;;;;;;;;;;;;;;;;;4998516;28;5116;-62
2023/09/10 16:34:42;;;;;;;;;;;;;;;;;;5004317;28;5208;-61
2023/09/10 16:37:07;;;;;;;;;;;;;;;;;;5005952;28;4443;-61
2023/09/10 16:39:33;;;;;;;;;;;;;;;;;;5011564;28;5028;-62
2023/09/10 16:41:59;;;;;;;;;;;;;;;;;;5006215;28;4962;-62
2023/09/10 16:44:27;;;;;;;;;;;;;;;;;;5007016;28;4467;-62
2023/09/10 16:46:53;;;;;;;;;;;;;;;;;;5006254;28;5121;-61
2023/09/10 16:49:18;;;;;;;;;;;;;;;;;;5008167;28;1161;-62
2023/09/10 16:51:43;;;;;;;;;;;;;;;;;;5007543;28;5108;-62
2023/09/10 16:54:09;;;;;;;;;;;;;;;;;;5007104;28;4605;-61